createdAt,value
2022-10-02T00:02:27.841Z,98490.63
2022-10-02T00:05:11.479Z,98480.13
2022-10-02T00:07:47.336Z,98482.19
2022-10-02T00:10:29.125Z,98487.34
2022-10-02T00:13:01.498Z,98474.16
2022-10-02T00:15:32.623Z,98488.13
2022-10-02T00:18:09.701Z,98477.16
2022-10-02T00:21:00.509Z,98463.56
2022-10-02T00:23:40.494Z,98490.38
2022-10-02T00:26:25.769Z,98510.59
2022-10-02T00:29:10.500Z,98554.19
2022-10-02T00:32:03.822Z,98561.09
2022-10-02T00:34:57.434Z,98582.97
2022-10-02T00:37:53.592Z,98784.84
2022-10-02T00:41:12.602Z,98535.50
2022-10-02T00:44:23.946Z,98515.81
2022-10-02T00:46:59.681Z,98494.16
2022-10-02T00:49:40.352Z,98479.28
2022-10-02T00:52:43.986Z,98489.72
2022-10-02T00:55:27.724Z,98480.88
2022-10-02T00:57:58.924Z,98472.31
2022-10-02T01:00:26.999Z,98485.25
2022-10-02T01:03:22.922Z,98481.41
2022-10-02T01:05:50.462Z,98505.50
2022-10-02T01:08:17.716Z,98519.56
2022-10-02T01:10:45.967Z,98506.97
2022-10-02T01:13:13.019Z,98505.81
2022-10-02T01:15:49.258Z,98487.97
2022-10-02T01:18:16.364Z,98520.69
2022-10-02T01:20:50.720Z,98510.84
2022-10-02T01:23:28.025Z,98505.28
2022-10-02T01:25:55.206Z,98520.16
2022-10-02T01:28:22.825Z,98493.72
2022-10-02T01:30:54.964Z,98495.25
2022-10-02T01:33:23.071Z,98499.16
2022-10-02T01:35:50.348Z,98505.94
2022-10-02T01:38:23.254Z,98511.19
2022-10-02T01:40:50.222Z,98508.19
2022-10-02T01:43:32.515Z,98493.03
2022-10-02T01:46:02.252Z,98506.00
2022-10-02T01:48:38.838Z,98500.75
2022-10-02T01:51:36.316Z,98496.81
2022-10-02T01:54:50.363Z,98523.78
2022-10-02T01:57:35.762Z,98525.69
2022-10-02T02:00:08.877Z,98553.03
2022-10-02T02:02:58.386Z,98543.44
2022-10-02T02:05:40.277Z,98521.03
2022-10-02T02:08:34.742Z,98523.72
2022-10-02T02:11:04.654Z,98529.13
2022-10-02T02:14:26.170Z,98531.41
2022-10-02T02:17:02.957Z,98537.66
2022-10-02T02:20:07.827Z,98526.63
2022-10-02T02:22:44.634Z,98525.09
2022-10-02T02:25:17.946Z,98534.44
2022-10-02T02:27:51.085Z,98524.09
2022-10-02T02:30:19.330Z,98524.16
2022-10-02T02:32:53.424Z,98525.84
2022-10-02T02:35:44.991Z,98552.63
2022-10-02T02:38:29.529Z,98541.84
2022-10-02T02:41:17.885Z,98524.78
2022-10-02T02:43:59.131Z,98551.94
2022-10-02T02:46:59.913Z,98547.84
2022-10-02T02:49:31.008Z,98556.09
2022-10-02T02:52:01.933Z,98552.13
2022-10-02T02:54:45.482Z,98538.03
2022-10-02T02:57:16.152Z,98554.66
2022-10-02T02:59:46.780Z,98557.19
2022-10-02T03:02:14.023Z,98552.72
2022-10-02T03:04:40.978Z,98556.06
2022-10-02T03:07:15.968Z,98557.97
2022-10-02T03:10:04.633Z,98562.38
2022-10-02T03:13:08.584Z,98550.13
2022-10-02T03:15:48.077Z,98569.44
2022-10-02T03:18:29.272Z,98555.97
2022-10-02T03:21:10.607Z,98552.38
2022-10-02T03:24:28.089Z,98555.28
2022-10-02T03:27:23.149Z,98547.28
2022-10-02T03:30:08.511Z,98561.47
2022-10-02T03:32:38.076Z,98565.50
2022-10-02T03:35:11.541Z,98544.94
2022-10-02T03:37:42.046Z,98556.00
2022-10-02T03:40:09.721Z,98546.22
2022-10-02T03:42:37.129Z,98534.97
2022-10-02T03:45:05.105Z,98535.22
2022-10-02T03:47:32.721Z,98526.63
2022-10-02T03:49:59.693Z,98533.75
2022-10-02T03:52:27.012Z,98534.00
2022-10-02T03:54:57.407Z,98538.66
2022-10-02T03:57:25.927Z,98528.84
2022-10-02T04:00:09.242Z,98520.03
2022-10-02T04:02:59.500Z,98521.09
2022-10-02T04:05:51.538Z,98523.78
2022-10-02T04:08:24.344Z,98554.25
2022-10-02T04:11:16.684Z,98529.44
2022-10-02T04:13:48.421Z,98531.72
2022-10-02T04:17:02.651Z,98547.44
2022-10-02T04:19:40.319Z,98544.09
2022-10-02T04:22:51.521Z,98532.03
2022-10-02T04:25:34.760Z,98548.19
2022-10-02T04:28:18.853Z,98562.00
2022-10-02T04:30:45.847Z,98549.50
2022-10-02T04:33:20.114Z,98541.44
2022-10-02T04:36:27.644Z,98535.31
2022-10-02T04:39:41.541Z,98538.97
2022-10-02T04:42:46.959Z,98541.59
2022-10-02T04:45:27.135Z,98534.97
2022-10-02T04:48:24.955Z,98520.41
2022-10-02T04:51:14.449Z,98526.47
2022-10-02T04:54:38.484Z,98522.00
2022-10-02T04:57:52.205Z,98532.53
2022-10-02T05:00:23.420Z,98534.72
2022-10-02T05:03:11.340Z,98533.00
2022-10-02T05:06:37.025Z,98542.63
2022-10-02T05:09:37.797Z,98556.69
2022-10-02T05:12:34.125Z,98535.69
2022-10-02T05:15:23.598Z,98558.31
2022-10-02T05:18:21.460Z,98537.88
2022-10-02T05:21:07.087Z,98539.09
2022-10-02T05:24:12.261Z,98534.53
2022-10-02T05:27:12.044Z,98539.13
2022-10-02T05:29:51.249Z,98553.28
2022-10-02T05:32:37.937Z,98540.41
2022-10-02T05:35:28.703Z,98538.38
2022-10-02T05:38:16.691Z,98547.13
2022-10-02T05:41:00.963Z,98538.06
2022-10-02T05:43:45.898Z,98540.25
2022-10-02T05:46:25.560Z,98545.44
2022-10-02T05:49:21.282Z,98531.66
2022-10-02T05:51:53.674Z,98541.38
2022-10-02T05:54:38.618Z,98532.00
2022-10-02T05:57:22.056Z,98534.75
2022-10-02T06:00:17.202Z,98541.19
2022-10-02T06:03:10.032Z,98544.31
2022-10-02T06:06:26.205Z,98545.81
2022-10-02T06:09:19.966Z,98551.50
2022-10-02T06:12:02.897Z,98545.41
2022-10-02T06:14:50.552Z,98541.53
2022-10-02T06:17:39.509Z,98544.81
2022-10-02T06:20:27.512Z,98555.25
2022-10-02T06:23:20.388Z,98555.84
2022-10-02T06:26:01.372Z,98545.59
2022-10-02T06:28:35.537Z,98547.69
2022-10-02T06:31:11.749Z,98545.06
2022-10-02T06:33:39.008Z,98559.84
2022-10-02T06:36:20.189Z,98539.22
2022-10-02T06:39:31.256Z,98540.97
2022-10-02T06:42:35.073Z,98534.72
2022-10-02T06:45:24.589Z,98527.78
2022-10-02T06:48:34.544Z,98532.16
2022-10-02T06:51:58.028Z,98528.72
2022-10-02T06:54:37.941Z,98525.53
2022-10-02T06:57:35.497Z,98531.00
2022-10-02T07:00:14.762Z,98528.44
2022-10-02T07:03:20.312Z,98538.53
2022-10-02T07:06:08.171Z,98529.06
2022-10-02T07:09:02.747Z,98511.25
2022-10-02T07:11:52.463Z,98516.38
2022-10-02T07:15:02.522Z,98514.81
2022-10-02T07:17:41.102Z,98508.47
2022-10-02T07:20:52.632Z,98496.78
2022-10-02T07:23:42.090Z,98491.94
2022-10-02T07:26:20.959Z,98489.03
2022-10-02T07:29:20.467Z,98484.03
2022-10-02T07:32:00.222Z,98481.78
2022-10-02T07:34:59.070Z,98480.59
2022-10-02T07:37:50.958Z,98482.22
2022-10-02T07:40:29.800Z,98480.66
2022-10-02T07:43:25.160Z,98469.19
2022-10-02T07:46:39.456Z,98479.19
2022-10-02T07:49:44.156Z,98481.91
2022-10-02T07:52:45.675Z,98480.84
2022-10-02T07:55:22.532Z,98479.59
2022-10-02T07:58:12.653Z,98478.50
2022-10-02T08:00:47.066Z,98483.53
2022-10-02T08:03:45.229Z,98482.84
2022-10-02T08:06:12.904Z,98479.53
2022-10-02T08:09:11.241Z,98473.22
2022-10-02T08:11:53.407Z,98475.13
2022-10-02T08:14:45.332Z,98460.69
2022-10-02T08:17:23.988Z,98454.31
2022-10-02T08:19:52.320Z,98465.75
2022-10-02T08:22:26.195Z,98474.59
2022-10-02T08:24:59.390Z,98455.56
2022-10-02T08:27:51.431Z,98483.19
2022-10-02T08:30:18.902Z,98465.88
2022-10-02T08:32:47.854Z,98480.19
2022-10-02T08:35:20.076Z,98460.81
2022-10-02T08:38:12.455Z,98449.75
2022-10-02T08:41:16.398Z,98436.31
2022-10-02T08:44:12.175Z,98450.72
2022-10-02T08:47:18.200Z,98431.78
2022-10-02T08:51:01.546Z,98438.66
2022-10-02T08:53:44.932Z,98442.53
2022-10-02T08:56:31.846Z,98427.47
2022-10-02T08:59:19.039Z,98418.44
2022-10-02T09:02:00.795Z,98410.13
2022-10-02T09:05:05.800Z,98419.16
2022-10-02T09:08:08.054Z,98423.38
2022-10-02T09:11:30.036Z,98418.13
2022-10-02T09:14:42.454Z,98413.22
2022-10-02T09:17:47.845Z,98428.13
2022-10-02T09:20:39.648Z,98447.81
2022-10-02T09:23:36.170Z,98458.06
2022-10-02T09:26:29.230Z,98460.91
2022-10-02T09:30:03.604Z,98463.25
2022-10-02T09:33:01.229Z,98456.34
2022-10-02T09:35:55.162Z,98446.19
2022-10-02T09:38:55.675Z,98454.25
2022-10-02T09:42:00.356Z,98446.66
2022-10-02T09:45:11.378Z,98424.91
2022-10-02T09:48:22.803Z,98436.13
2022-10-02T09:51:12.037Z,98430.38
2022-10-02T09:54:10.996Z,98427.22
2022-10-02T09:56:53.412Z,98433.06
2022-10-02T09:59:38.278Z,98434.34
2022-10-02T10:03:02.145Z,98425.94
2022-10-02T10:05:59.291Z,98422.28
2022-10-02T10:08:53.336Z,98430.00
2022-10-02T10:11:39.326Z,98436.22
2022-10-02T10:14:18.893Z,98431.81
2022-10-02T10:17:42.514Z,98438.16
2022-10-02T10:20:51.758Z,98445.38
2022-10-02T10:23:24.621Z,98444.75
2022-10-02T10:26:44.726Z,98448.00
2022-10-02T10:29:23.825Z,98444.41
2022-10-02T10:32:26.139Z,98453.53
2022-10-02T10:35:08.078Z,98440.63
2022-10-02T10:38:33.547Z,98439.34
2022-10-02T10:41:36.310Z,98440.47
2022-10-02T10:44:17.370Z,98437.47
2022-10-02T10:47:21.622Z,98443.13
2022-10-02T10:50:29.074Z,98447.09
2022-10-02T10:53:38.975Z,98448.31
2022-10-02T10:56:56.098Z,98452.00
2022-10-02T10:59:50.907Z,98458.59
2022-10-02T11:02:29.786Z,98445.56
2022-10-02T11:05:38.141Z,98442.75
2022-10-02T11:08:18.324Z,98444.81
2022-10-02T11:11:01.308Z,98442.75
2022-10-02T11:14:15.788Z,98453.16
2022-10-02T11:17:31.319Z,98446.25
2022-10-02T11:20:35.806Z,98452.25
2022-10-02T11:23:21.168Z,98446.19
2022-10-02T11:25:53.967Z,98450.06
2022-10-02T11:28:56.258Z,98466.78
2022-10-02T11:31:47.015Z,98468.63
2022-10-02T11:34:55.173Z,98480.53
2022-10-02T11:37:50.697Z,98467.44
2022-10-02T11:40:49.029Z,98448.91
2022-10-02T11:44:05.539Z,98450.50
2022-10-02T11:46:46.111Z,98449.59
2022-10-02T11:50:05.357Z,98444.72
2022-10-02T11:53:04.327Z,98442.09
2022-10-02T11:56:07.133Z,98454.69
2022-10-02T11:58:58.224Z,98447.94
2022-10-02T12:01:34.390Z,98445.47
2022-10-02T12:04:23.112Z,98459.47
2022-10-02T12:07:13.979Z,98463.13
2022-10-02T12:10:05.454Z,98464.03
2022-10-02T12:12:59.182Z,98453.75
2022-10-02T12:15:33.208Z,98466.59
2022-10-02T12:18:52.544Z,98446.81
2022-10-02T12:21:47.011Z,98436.63
2022-10-02T12:25:01.487Z,98430.97
2022-10-02T12:27:44.926Z,98428.56
2022-10-02T12:30:18.704Z,98432.84
2022-10-02T12:32:54.580Z,98429.22
2022-10-02T12:35:43.409Z,98429.03
2022-10-02T12:38:28.436Z,98433.31
2022-10-02T12:41:40.357Z,98435.44
2022-10-02T12:44:56.375Z,98432.69
2022-10-02T12:47:49.937Z,98427.44
2022-10-02T12:51:08.937Z,98450.13
2022-10-02T12:54:22.660Z,98447.94
2022-10-02T12:57:52.753Z,98452.53
2022-10-02T13:01:08.506Z,98470.06
2022-10-02T13:04:28.411Z,98473.06
2022-10-02T13:07:41.061Z,98459.00
2022-10-02T13:10:30.806Z,98446.09
2022-10-02T13:13:46.047Z,98469.72
2022-10-02T13:16:58.279Z,98458.72
2022-10-02T13:19:40.174Z,98455.22
2022-10-02T13:22:31.417Z,98469.72
2022-10-02T13:25:26.311Z,98477.56
2022-10-02T13:28:52.937Z,98467.47
2022-10-02T13:32:21.474Z,98465.69
2022-10-02T13:35:21.876Z,98455.13
2022-10-02T13:38:42.817Z,98463.09
2022-10-02T13:41:53.512Z,98457.38
2022-10-02T13:45:06.576Z,98451.72
2022-10-02T13:48:13.258Z,98453.78
2022-10-02T13:50:56.720Z,98448.41
2022-10-02T13:53:54.337Z,98455.44
2022-10-02T13:56:50.547Z,98448.97
2022-10-02T13:59:26.200Z,98452.78
2022-10-02T14:02:17.703Z,98447.19
2022-10-02T14:04:51.779Z,98456.78
2022-10-02T14:07:39.647Z,98458.41
2022-10-02T14:10:28.393Z,98453.88
2022-10-02T14:13:23.334Z,98467.38
2022-10-02T14:16:09.148Z,98470.25
2022-10-02T14:19:23.680Z,98481.63
2022-10-02T14:22:38.403Z,98484.34
2022-10-02T14:25:08.267Z,98464.97
2022-10-02T14:28:02.293Z,98466.53
2022-10-02T14:30:47.136Z,98462.59
2022-10-02T14:34:01.816Z,98444.91
2022-10-02T14:36:43.571Z,98433.56
2022-10-02T14:39:32.114Z,98434.84
2022-10-02T14:42:54.006Z,98455.47
2022-10-02T14:46:03.410Z,98434.69
2022-10-02T14:48:47.379Z,98426.69
2022-10-02T14:51:30.611Z,98423.88
2022-10-02T14:54:31.538Z,98416.81
2022-10-02T14:57:22.934Z,98427.91
2022-10-02T15:00:13.763Z,98449.09
2022-10-02T15:03:10.202Z,98444.03
2022-10-02T15:06:12.045Z,98448.09
2022-10-02T15:08:51.114Z,98452.72
2022-10-02T15:11:47.453Z,98447.81
2022-10-02T15:14:49.033Z,98450.06
2022-10-02T15:17:50.938Z,98445.88
2022-10-02T15:20:30.062Z,98466.75
2022-10-02T15:23:15.003Z,98468.41
2022-10-02T15:25:57.558Z,98472.81
2022-10-02T15:29:00.456Z,98460.66
2022-10-02T15:32:18.320Z,98443.91
2022-10-02T15:35:35.837Z,98458.75
2022-10-02T15:38:27.792Z,98456.50
2022-10-02T15:41:12.925Z,98476.50
2022-10-02T15:43:58.066Z,98475.28
2022-10-02T15:46:42.546Z,98487.91
2022-10-02T15:49:49.800Z,98486.38
2022-10-02T15:53:15.463Z,98482.97
2022-10-02T15:55:48.936Z,98494.53
2022-10-02T15:59:14.763Z,98498.09
2022-10-02T16:02:06.758Z,98497.69
2022-10-02T16:04:52.182Z,98505.00
2022-10-02T16:07:51.087Z,98512.25
2022-10-02T16:10:26.784Z,98526.03
2022-10-02T16:13:17.859Z,98522.78
2022-10-02T16:16:25.347Z,98530.16
2022-10-02T16:19:30.404Z,98530.78
2022-10-02T16:22:26.012Z,98530.97
2022-10-02T16:25:25.161Z,98520.69
2022-10-02T16:28:34.624Z,98523.94
2022-10-02T16:31:20.793Z,98522.81
2022-10-02T16:34:17.276Z,98520.13
2022-10-02T16:37:02.964Z,98526.84
2022-10-02T16:39:47.139Z,98534.75
2022-10-02T16:42:48.197Z,98542.06
2022-10-02T16:45:43.111Z,98543.81
2022-10-02T16:48:18.879Z,98547.97
2022-10-02T16:51:01.883Z,98552.06
2022-10-02T16:54:10.410Z,98558.03
2022-10-02T16:56:55.602Z,98565.53
2022-10-02T16:59:42.679Z,98559.66
2022-10-02T17:02:23.260Z,98565.63
2022-10-02T17:05:25.590Z,98559.59
2022-10-02T17:08:10.841Z,98565.50
2022-10-02T17:11:28.839Z,98569.13
2022-10-02T17:14:41.505Z,98584.56
2022-10-02T17:17:50.194Z,98580.72
2022-10-02T17:20:19.567Z,98600.75
2022-10-02T17:23:37.286Z,98606.31
2022-10-02T17:26:28.435Z,98619.00
2022-10-02T17:29:23.827Z,98615.34
2022-10-02T17:31:58.941Z,98629.47
2022-10-02T17:34:32.905Z,98620.88
2022-10-02T17:37:09.271Z,98627.50
2022-10-02T17:39:56.978Z,98625.72
2022-10-02T17:42:44.875Z,98632.75
2022-10-02T17:45:45.958Z,98633.75
2022-10-02T17:48:52.406Z,98637.63
2022-10-02T17:54:59.195Z,98632.47
2022-10-02T17:57:58.439Z,98640.34
2022-10-02T18:00:26.368Z,98640.91
2022-10-02T18:03:26.868Z,98636.53
2022-10-02T18:06:16.300Z,98638.41
2022-10-02T18:09:15.317Z,98641.59
2022-10-02T18:12:10.283Z,98632.38
2022-10-02T18:14:54.847Z,98606.81
2022-10-02T18:17:54.359Z,98634.03
2022-10-02T18:20:43.940Z,98654.97
2022-10-02T18:23:36.017Z,98646.59
2022-10-02T18:26:19.202Z,98646.53
2022-10-02T18:29:02.917Z,98653.31
2022-10-02T18:31:55.678Z,98654.50
2022-10-02T18:34:43.667Z,98661.91
2022-10-02T18:37:48.192Z,98666.00
2022-10-02T18:40:53.326Z,98676.06
2022-10-02T18:43:35.569Z,98680.00
2022-10-02T18:46:55.584Z,98678.44
2022-10-02T18:49:51.933Z,98691.09
2022-10-02T18:52:49.625Z,98679.97
2022-10-02T18:55:40.055Z,98675.59
2022-10-02T18:58:50.897Z,98679.38
2022-10-02T19:01:46.793Z,98671.69
2022-10-02T19:04:51.294Z,98670.03
2022-10-02T19:07:29.286Z,98674.63
2022-10-02T19:10:31.646Z,98673.56
2022-10-02T19:13:27.112Z,98685.63
2022-10-02T19:16:01.135Z,98690.44
2022-10-02T19:18:30.762Z,98692.53
2022-10-02T19:21:25.044Z,98698.94
2022-10-02T19:24:19.899Z,98716.72
2022-10-02T19:26:52.492Z,98714.00
2022-10-02T19:29:27.977Z,98719.13
2022-10-02T19:31:59.733Z,98721.72
2022-10-02T19:34:32.112Z,98721.16
2022-10-02T19:37:05.089Z,98719.16
2022-10-02T19:39:39.579Z,98715.00
2022-10-02T19:42:16.348Z,98724.34
2022-10-02T19:44:50.593Z,98731.56
2022-10-02T19:47:48.707Z,98743.94
2022-10-02T19:50:46.494Z,98747.72
2022-10-02T19:53:39.126Z,98760.31
2022-10-02T19:56:24.339Z,98767.09
2022-10-02T19:58:58.580Z,98764.34
2022-10-02T20:01:43.223Z,98762.66
2022-10-02T20:04:18.826Z,98769.94
2022-10-02T20:06:52.931Z,98770.28
2022-10-02T20:09:36.574Z,98768.78
2022-10-02T20:12:19.226Z,98772.22
2022-10-02T20:15:03.607Z,98785.31
2022-10-02T20:17:32.467Z,98780.19
2022-10-02T20:20:38.870Z,98793.28
2022-10-02T20:23:17.031Z,98799.91
2022-10-02T20:25:52.229Z,98798.31
2022-10-02T20:28:49.154Z,98800.06
2022-10-02T20:31:43.012Z,98798.31
2022-10-02T20:34:26.857Z,98806.69
2022-10-02T20:37:05.135Z,98809.09
2022-10-02T20:39:51.609Z,98818.00
2022-10-02T20:42:27.101Z,98820.31
2022-10-02T20:44:54.280Z,98826.16
2022-10-02T20:47:52.242Z,98833.72
2022-10-02T20:50:41.495Z,98831.88
2022-10-02T20:53:41.612Z,98838.50
2022-10-02T20:56:40.500Z,98842.88
2022-10-02T20:59:45.296Z,98851.09
2022-10-02T21:02:57.550Z,98858.09
2022-10-02T21:05:53.349Z,98866.81
2022-10-02T21:09:03.636Z,98870.09
2022-10-02T21:11:46.483Z,98867.75
2022-10-02T21:14:54.560Z,98872.72
2022-10-02T21:17:27.581Z,98884.13
2022-10-02T21:20:46.273Z,98880.94
2022-10-02T21:23:35.965Z,98887.94
2022-10-02T21:26:48.687Z,98884.22
2022-10-02T21:29:36.115Z,98894.09
2022-10-02T21:32:25.530Z,98885.19
2022-10-02T21:35:31.938Z,98890.94
2022-10-02T21:38:46.356Z,98885.16
2022-10-02T21:41:54.326Z,98892.25
2022-10-02T21:44:46.484Z,98892.25
2022-10-02T21:47:34.883Z,98907.81
2022-10-02T21:50:36.080Z,98900.91
2022-10-02T21:53:42.722Z,98896.31
2022-10-02T21:56:34.680Z,98906.28
2022-10-02T22:00:07.795Z,98903.38
2022-10-02T22:03:11.522Z,98903.00
2022-10-02T22:06:39.072Z,98918.00
2022-10-02T22:09:50.392Z,98914.94
2022-10-02T22:12:43.680Z,98913.53
2022-10-02T22:15:26.503Z,98912.13
2022-10-02T22:18:44.611Z,98915.13
2022-10-02T22:22:20.593Z,98910.25
2022-10-02T22:25:13.877Z,98923.81
2022-10-02T22:28:16.231Z,98917.97
2022-10-02T22:31:19.453Z,98917.81
2022-10-02T22:33:55.410Z,98924.81
2022-10-02T22:36:46.984Z,98924.38
2022-10-02T22:39:33.118Z,98926.25
2022-10-02T22:42:13.392Z,98933.41
2022-10-02T22:44:51.050Z,98929.09
2022-10-02T22:47:47.051Z,98939.72
2022-10-02T22:51:05.952Z,98940.19
2022-10-02T22:53:49.734Z,98941.72
2022-10-02T22:56:31.209Z,98933.66
2022-10-02T22:59:13.289Z,98941.53
2022-10-02T23:01:51.536Z,98947.00
2022-10-02T23:04:47.223Z,98957.00
2022-10-02T23:07:34.220Z,98955.25
2022-10-02T23:10:25.817Z,98957.50
2022-10-02T23:13:21.264Z,98956.56
2022-10-02T23:15:53.993Z,98966.09
2022-10-02T23:19:06.624Z,98963.78
2022-10-02T23:22:13.840Z,98962.28
2022-10-02T23:24:56.369Z,98956.69
2022-10-02T23:27:50.482Z,98959.47
2022-10-02T23:30:22.264Z,98954.47
2022-10-02T23:33:29.884Z,98961.56
2022-10-02T23:36:06.408Z,98962.84
2022-10-02T23:38:42.555Z,98970.34
2022-10-02T23:41:37.403Z,98979.84
2022-10-02T23:44:40.074Z,98967.66
2022-10-02T23:47:34.403Z,98967.91
2022-10-02T23:50:02.028Z,98979.56
2022-10-02T23:52:48.394Z,98965.03
2022-10-02T23:55:31.538Z,98972.16
2022-10-02T23:58:15.257Z,98968.41
